Terminal Aerodrome Forecast
Issued by NWS

Home | Current Version | Previous Version | Text Only | Print | Product List | Glossary On
Versions: 1 2 3 4 5 6 7 8 9 10 11 12 13 14 15 16 17
000
FTUS41 KBTV 041131
TAFMSS
TAF
KMSS 041131Z 0412/0512 29007KT P6SM OVC028
     FM041700 29005KT P6SM BKN035
     FM041900 28004KT P6SM SCT040
     FM042200 VRB03KT P6SM SKC
     FM050800 08004KT P6SM VCSH BKN080 OVC150
     FM051000 08005KT 2SM -SN BR SCT025 OVC050=

USA.gov is the U.S. government's official web portal to all federal, state and local government web resources and services.